Time;durP1;ratioP1;P1;durP2;ratioP2;P2;SDS_P1;SDS_P2;PMS_P1;PMS_P2;Temp;Humidity;BMP_temperature;BMP_pressure;BME280_temperature;BME280_humidity;BME280_pressure;Samples;Min_cycle;Max_cycle;Signal;HPM_P1;HPM_P2
2022/03/02 00:00:17;;;;;;;32.22;12.65;;;;;;;5.46;39.91;102181.19;5020235;28;20431;-63
2022/03/02 00:02:44;;;;;;;28.85;12.68;;;;;;;5.40;40.23;102171.00;5053163;28;20057;-63
2022/03/02 00:05:11;;;;;;;30.77;12.43;;;;;;;5.27;39.99;102168.19;5054422;28;20055;-63
2022/03/02 00:07:37;;;;;;;25.05;12.07;;;;;;;5.30;40.28;102170.66;5036770;28;20048;-63
2022/03/02 00:10:05;;;;;;;26.50;12.13;;;;;;;5.26;41.03;102170.94;5054096;28;20048;-63
2022/03/02 00:12:32;;;;;;;29.05;11.55;;;;;;;5.13;41.02;102173.34;5069635;28;20045;-63
2022/03/02 00:14:59;;;;;;;32.03;12.02;;;;;;;5.06;41.85;102170.22;5052624;28;20037;-63
2022/03/02 00:17:25;;;;;;;25.88;12.23;;;;;;;4.97;41.46;102176.84;5052580;28;20111;-63
2022/03/02 00:19:52;;;;;;;28.83;12.77;;;;;;;5.04;42.09;102177.38;5053048;28;20044;-63
2022/03/02 00:22:19;;;;;;;37.08;12.18;;;;;;;4.97;42.20;102179.47;5040830;28;20044;-63
2022/03/02 00:24:50;;;;;;;29.90;13.10;;;;;;;4.84;42.30;102177.56;5052458;28;20052;-63
2022/03/02 00:27:23;;;;;;;36.30;13.35;;;;;;;4.91;42.79;102178.94;5054045;28;20045;-63
2022/03/02 00:29:51;;;;;;;30.38;12.77;;;;;;;4.84;43.34;102183.69;5052602;28;20071;-63
2022/03/02 00:32:17;;;;;;;29.50;12.63;;;;;;;4.89;43.36;102183.44;5035269;28;20088;-63
2022/03/02 00:34:44;;;;;;;30.95;12.45;;;;;;;4.77;43.46;102175.28;5069140;28;20103;-63
2022/03/02 00:37:12;;;;;;;32.88;12.80;;;;;;;4.74;42.83;102177.22;5052930;28;20401;-63
2022/03/02 00:39:39;;;;;;;32.28;13.35;;;;;;;4.73;42.64;102168.47;5068988;28;20493;-63
2022/03/02 00:42:06;;;;;;;31.70;13.27;;;;;;;4.76;43.50;102163.03;5052419;28;20488;-63
2022/03/02 00:44:34;;;;;;;28.45;12.40;;;;;;;4.77;42.82;102158.66;5052255;28;20144;-63
2022/03/02 00:47:00;;;;;;;35.47;13.02;;;;;;;4.78;42.36;102158.56;5068674;28;20037;-63
2022/03/02 00:49:31;;;;;;;27.75;12.65;;;;;;;4.69;42.21;102155.56;5052099;28;20143;-63
2022/03/02 00:51:59;;;;;;;30.23;12.70;;;;;;;4.72;43.20;102148.38;5052142;28;20481;-63
2022/03/02 00:54:26;;;;;;;32.30;12.65;;;;;;;4.76;43.86;102149.91;5052449;28;20056;-63
2022/03/02 00:56:53;;;;;;;28.88;11.73;;;;;;;4.73;42.96;102143.94;5035837;28;20056;-63
2022/03/02 00:59:19;;;;;;;29.85;12.15;;;;;;;4.66;43.15;102143.44;5054083;28;20066;-63
2022/03/02 01:01:46;;;;;;;33.30;12.70;;;;;;;4.60;43.75;102143.75;5040881;28;22007;-63
2022/03/02 01:04:14;;;;;;;26.00;11.38;;;;;;;4.69;43.28;102152.94;5068656;28;20095;-62
2022/03/02 01:06:41;;;;;;;27.80;12.63;;;;;;;4.67;43.42;102147.75;5052952;28;20048;-63
2022/03/02 01:09:08;;;;;;;26.90;11.57;;;;;;;4.57;42.56;102144.78;5053466;28;20461;-63
2022/03/02 01:11:35;;;;;;;28.20;12.27;;;;;;;4.64;43.28;102140.06;5051763;28;20043;-63
2022/03/02 01:14:02;;;;;;;30.35;11.93;;;;;;;4.63;43.53;102133.09;5035085;28;20040;-63
2022/03/02 01:16:29;;;;;;;32.20;12.18;;;;;;;4.63;43.09;102133.09;5051660;28;20049;-63
2022/03/02 01:18:56;;;;;;;28.77;12.68;;;;;;;4.54;43.58;102136.19;5032814;28;20514;-62
2022/03/02 01:21:22;;;;;;;32.15;12.40;;;;;;;4.46;44.02;102133.13;5051848;28;20068;-63
2022/03/02 01:23:49;;;;;;;28.13;12.05;;;;;;;4.54;43.08;102131.78;5032759;28;20045;-62
2022/03/02 01:26:16;;;;;;;28.33;12.30;;;;;;;4.48;43.33;102126.88;5052226;28;20057;-63
2022/03/02 01:28:42;;;;;;;29.48;11.65;;;;;;;4.46;43.93;102130.47;5055110;28;20033;-62
2022/03/02 01:31:13;;;;;;;28.33;11.68;;;;;;;4.43;43.49;102115.75;5036943;28;20037;-63
2022/03/02 01:33:39;;;;;;;25.50;11.85;;;;;;;4.40;43.33;102116.75;5046450;28;20053;-63
2022/03/02 01:36:06;;;;;;;25.42;11.30;;;;;;;4.43;43.47;102113.13;5051584;28;20055;-63
2022/03/02 01:38:33;;;;;;;25.42;11.75;;;;;;;4.32;43.08;102111.03;5051326;28;20489;-63
2022/03/02 01:40:59;;;;;;;28.10;11.80;;;;;;;4.22;43.42;102109.81;5068358;28;20041;-63
2022/03/02 01:43:27;;;;;;;30.08;12.65;;;;;;;4.20;43.98;102119.56;5052602;28;20064;-64
2022/03/02 01:45:54;;;;;;;24.25;11.20;;;;;;;4.19;44.15;102116.09;5052535;28;20037;-63
2022/03/02 01:48:20;;;;;;;28.95;12.15;;;;;;;4.22;43.95;102109.81;5034969;28;20136;-63
2022/03/02 01:50:47;;;;;;;33.08;12.55;;;;;;;4.22;43.98;102108.06;5067715;28;20072;-64
2022/03/02 01:53:14;;;;;;;24.00;10.88;;;;;;;4.25;43.70;102111.44;5035227;28;20045;-63
2022/03/02 01:55:41;;;;;;;26.73;11.50;;;;;;;4.12;43.00;102109.44;5067893;28;20056;-64
2022/03/02 01:58:09;;;;;;;23.90;11.52;;;;;;;4.15;44.21;102108.47;5052377;28;20041;-63
2022/03/02 02:00:35;;;;;;;25.40;11.10;;;;;;;4.23;43.15;102108.91;5068008;28;20045;-63
2022/03/02 02:03:02;;;;;;;25.42;10.80;;;;;;;4.13;42.98;102098.03;5052377;28;20041;-63
2022/03/02 02:05:30;;;;;;;26.58;11.30;;;;;;;4.11;43.34;102096.38;5051405;28;20045;-63
2022/03/02 02:07:57;;;;;;;27.50;11.63;;;;;;;4.12;44.06;102100.72;5051220;28;20045;-63
2022/03/02 02:10:24;;;;;;;26.65;11.52;;;;;;;4.10;43.69;102095.56;5051728;28;20049;-63
2022/03/02 02:12:51;;;;;;;26.80;10.93;;;;;;;4.04;43.22;102088.84;5067572;28;20033;-63
2022/03/02 02:15:17;;;;;;;27.38;11.30;;;;;;;4.10;42.84;102090.28;5051165;28;20041;-63
2022/03/02 02:17:44;;;;;;;24.73;11.68;;;;;;;4.12;43.17;102093.69;5052243;28;20037;-63
2022/03/02 02:20:12;;;;;;;24.58;11.05;;;;;;;4.18;43.96;102088.13;5051029;28;20404;-63
2022/03/02 02:22:42;;;;;;;22.95;11.07;;;;;;;4.13;44.06;102081.41;5050990;28;20454;-63
2022/03/02 02:25:10;;;;;;;24.73;10.85;;;;;;;4.19;43.08;102086.34;5050478;28;20094;-64
2022/03/02 02:27:38;;;;;;;27.85;12.15;;;;;;;4.15;44.14;102084.81;5052230;28;20053;-63
2022/03/02 02:30:06;;;;;;;24.55;10.60;;;;;;;4.03;44.18;102079.25;5067170;28;20051;-63
2022/03/02 02:32:37;;;;;;;32.83;11.38;;;;;;;4.05;43.72;102079.19;5051344;28;20071;-63
2022/03/02 02:35:06;;;;;;;25.80;11.32;;;;;;;4.12;44.54;102083.19;5050918;28;20462;-63
2022/03/02 02:37:34;;;;;;;24.85;10.70;;;;;;;4.13;44.15;102079.66;5034885;28;20053;-63
2022/03/02 02:40:06;;;;;;;24.17;10.27;;;;;;;4.07;43.47;102077.31;5051112;28;20493;-63
2022/03/02 02:42:34;;;;;;;25.42;11.05;;;;;;;4.07;43.61;102069.44;5050864;28;20044;-63
2022/03/02 02:45:01;;;;;;;23.92;11.07;;;;;;;4.06;44.30;102065.13;5051868;28;20490;-63
2022/03/02 02:47:28;;;;;;;27.48;11.43;;;;;;;4.15;43.23;102063.81;5050610;28;20041;-64
2022/03/02 02:49:55;;;;;;;26.40;10.60;;;;;;;4.07;43.47;102061.56;5067628;28;20064;-63
2022/03/02 02:52:21;;;;;;;26.85;10.95;;;;;;;4.10;43.33;102058.78;5051945;28;20401;-64
2022/03/02 02:54:49;;;;;;;27.17;10.73;;;;;;;3.97;43.99;102053.31;5067229;28;20132;-64
2022/03/02 02:57:16;;;;;;;29.67;11.55;;;;;;;4.02;44.81;102060.94;5055153;28;20049;-64
2022/03/02 02:59:43;;;;;;;26.95;10.82;;;;;;;4.04;44.05;102056.50;5054634;28;20056;-64
2022/03/02 03:02:10;;;;;;;22.88;10.73;;;;;;;4.05;44.77;102055.53;5059806;28;20035;-64
2022/03/02 03:04:44;;;;;;;23.00;10.35;;;;;;;4.02;44.63;102053.06;5071478;28;20448;-64
2022/03/02 03:07:11;;;;;;;24.73;10.75;;;;;;;4.01;44.28;102046.97;5053045;28;20051;-64
2022/03/02 03:09:38;;;;;;;23.05;10.95;;;;;;;4.02;44.58;102051.31;5055243;28;20102;-64
2022/03/02 03:12:05;;;;;;;21.75;10.27;;;;;;;4.09;44.64;102045.72;5055319;28;20040;-64
2022/03/02 03:14:32;;;;;;;29.63;11.02;;;;;;;4.14;44.45;102041.09;5055283;28;20064;-64
2022/03/02 03:16:58;;;;;;;27.85;10.65;;;;;;;4.08;45.05;102042.25;5053780;28;20051;-64
2022/03/02 03:19:25;;;;;;;21.15;10.27;;;;;;;4.13;44.54;102042.00;5034593;28;20053;-64
2022/03/02 03:21:52;;;;;;;25.10;10.65;;;;;;;4.09;44.55;102040.47;5048933;28;20041;-63
2022/03/02 03:24:18;;;;;;;23.17;9.77;;;;;;;4.10;44.21;102035.16;5037637;28;20045;-64
2022/03/02 03:26:45;;;;;;;23.35;10.90;;;;;;;4.25;44.12;102040.53;5055331;28;20476;-63
2022/03/02 03:29:11;;;;;;;27.73;11.23;;;;;;;4.20;43.96;102039.00;5053775;28;20072;-63
2022/03/02 03:31:38;;;;;;;25.73;10.30;;;;;;;4.26;43.57;102035.19;5048482;28;20049;-63
2022/03/02 03:34:09;;;;;;;22.83;10.43;;;;;;;4.17;44.14;102033.91;5054395;28;20049;-63
2022/03/02 03:36:36;;;;;;;23.70;10.85;;;;;;;4.15;44.23;102035.75;5056610;28;20121;-63
2022/03/02 03:39:02;;;;;;;29.85;11.13;;;;;;;4.16;44.05;102034.81;5055692;28;20045;-63
2022/03/02 03:41:29;;;;;;;22.75;10.73;;;;;;;4.26;43.83;102029.06;5055321;28;20041;-62
2022/03/02 03:43:56;;;;;;;26.35;10.32;;;;;;;4.26;43.83;102032.56;5033865;28;20095;-63
2022/03/02 03:46:23;;;;;;;24.42;10.88;;;;;;;4.27;44.04;102036.03;5037874;28;20216;-63
2022/03/02 03:48:50;;;;;;;25.02;10.25;;;;;;;4.21;43.86;102037.22;5053134;28;20053;-63
2022/03/02 03:51:16;;;;;;;23.58;10.23;;;;;;;4.28;44.21;102030.69;5069717;28;20098;-63
2022/03/02 03:53:43;;;;;;;24.77;10.57;;;;;;;4.25;44.19;102036.09;5053362;28;20103;-63
2022/03/02 03:56:10;;;;;;;22.67;10.32;;;;;;;4.19;44.36;102034.66;5054883;28;20102;-63
2022/03/02 03:58:37;;;;;;;21.95;10.40;;;;;;;4.24;45.09;102034.44;5069606;28;20048;-63
2022/03/02 04:01:04;;;;;;;21.98;10.18;;;;;;;4.29;44.30;102032.38;5054373;28;20048;-63
2022/03/02 04:03:31;;;;;;;23.90;9.93;;;;;;;4.19;43.62;102026.78;5054414;28;20067;-63
2022/03/02 04:05:58;;;;;;;24.42;10.55;;;;;;;4.20;43.93;102022.38;5053969;28;20043;-63
2022/03/02 04:08:25;;;;;;;22.15;10.80;;;;;;;4.21;43.82;102024.91;5054429;28;20041;-63
2022/03/02 04:10:52;;;;;;;27.30;10.60;;;;;;;4.23;43.64;102028.31;5036500;28;20052;-63
2022/03/02 04:13:18;;;;;;;26.00;10.82;;;;;;;4.14;43.57;102027.97;5054451;28;20443;-63
2022/03/02 04:15:45;;;;;;;23.23;10.27;;;;;;;4.14;43.98;102028.78;5052922;28;20037;-63
2022/03/02 04:18:12;;;;;;;20.40;9.75;;;;;;;4.27;43.75;102025.53;5052770;28;20045;-63
2022/03/02 04:20:39;;;;;;;22.63;10.82;;;;;;;4.14;44.58;102020.91;5053772;28;20075;-63
2022/03/02 04:23:08;;;;;;;23.67;10.40;;;;;;;4.15;44.63;102024.41;5054228;28;20444;-63
2022/03/02 04:25:35;;;;;;;26.70;10.82;;;;;;;4.13;44.37;102026.25;5052784;28;20040;-63
2022/03/02 04:28:02;;;;;;;28.05;10.52;;;;;;;4.17;44.72;102023.38;5053813;28;20083;-66
2022/03/02 04:30:30;;;;;;;21.15;10.05;;;;;;;4.18;44.94;102017.22;5053566;28;20516;-63
2022/03/02 04:32:58;;;;;;;23.15;10.40;;;;;;;4.15;44.94;102013.91;5053506;28;20071;-63
2022/03/02 04:35:32;;;;;;;19.83;9.85;;;;;;;4.13;44.28;102002.59;5052819;28;20068;-63
2022/03/02 04:37:59;;;;;;;23.08;10.75;;;;;;;4.09;44.45;102003.72;5053887;28;20041;-63
2022/03/02 04:40:25;;;;;;;23.55;9.95;;;;;;;4.02;44.16;101998.78;5053425;28;20448;-63
2022/03/02 04:42:54;;;;;;;23.58;10.80;;;;;;;4.09;45.34;101998.47;5052271;28;20086;-63
2022/03/02 04:45:25;;;;;;;24.20;10.10;;;;;;;4.11;44.97;102000.09;5068836;28;20041;-63
2022/03/02 04:47:53;;;;;;;27.33;10.02;;;;;;;4.11;44.40;102000.09;5050998;28;20077;-63
2022/03/02 04:50:20;;;;;;;26.77;11.05;;;;;;;4.15;44.89;101991.09;5026546;28;20052;-63
2022/03/02 04:52:48;;;;;;;22.52;10.70;;;;;;;4.15;44.80;102003.41;5053117;28;20390;-63
2022/03/02 04:55:16;;;;;;;22.23;10.27;;;;;;;4.16;45.50;102002.47;5053491;28;20114;-64
2022/03/02 04:57:48;;;;;;;23.70;10.95;;;;;;;4.19;45.66;101994.41;5052362;28;20072;-64
2022/03/02 05:00:18;;;;;;;22.05;11.02;;;;;;;4.21;44.65;101992.56;5067678;28;20036;-64
2022/03/02 05:02:45;;;;;;;25.08;10.63;;;;;;;4.16;44.16;101997.19;5062932;28;20037;-64
2022/03/02 05:05:14;;;;;;;21.70;10.63;;;;;;;4.17;44.90;101985.78;5053157;28;20040;-64
2022/03/02 05:07:42;;;;;;;23.10;10.50;;;;;;;4.14;45.85;101981.53;5019964;28;20156;-63
2022/03/02 05:10:10;;;;;;;23.63;10.43;;;;;;;4.17;44.73;101973.47;5033968;28;20539;-64
2022/03/02 05:12:37;;;;;;;23.40;10.52;;;;;;;4.17;45.78;101975.28;5052079;28;20041;-64
2022/03/02 05:15:06;;;;;;;24.88;11.43;;;;;;;4.18;45.40;101969.06;5052015;28;20045;-64
2022/03/02 05:17:33;;;;;;;22.35;10.40;;;;;;;4.18;45.30;101969.06;5042622;28;20073;-64
2022/03/02 05:20:00;;;;;;;23.00;10.85;;;;;;;4.04;45.95;101981.16;5039307;28;20045;-64
2022/03/02 05:22:27;;;;;;;24.48;10.95;;;;;;;4.03;46.17;101976.00;5051419;28;20045;-64
2022/03/02 05:24:54;;;;;;;23.90;11.07;;;;;;;4.10;46.75;101971.28;5052815;28;20141;-64
2022/03/02 05:27:20;;;;;;;25.83;11.07;;;;;;;4.10;46.16;101977.38;5019205;28;20068;-63
2022/03/02 05:29:47;;;;;;;22.17;11.15;;;;;;;4.12;46.77;101974.66;5051534;28;20055;-64
2022/03/02 05:32:14;;;;;;;22.38;10.27;;;;;;;4.10;46.42;101971.28;5051093;28;20029;-64
2022/03/02 05:34:41;;;;;;;23.27;11.18;;;;;;;4.10;46.85;101980.00;5052918;28;20125;-64
2022/03/02 05:37:10;;;;;;;25.33;10.68;;;;;;;4.08;46.37;101983.66;5051254;28;20041;-64
2022/03/02 05:39:37;;;;;;;24.70;11.52;;;;;;;4.09;46.68;101980.06;5051700;28;20094;-64
2022/03/02 05:42:04;;;;;;;23.15;10.52;;;;;;;4.14;45.84;101980.69;5068667;28;20033;-64
2022/03/02 05:44:31;;;;;;;24.92;10.15;;;;;;;4.02;47.00;101984.78;5051971;28;20051;-64
2022/03/02 05:46:58;;;;;;;23.35;10.32;;;;;;;4.09;46.83;101973.03;5057976;28;20061;-64
2022/03/02 05:49:25;;;;;;;19.98;10.73;;;;;;;4.09;46.31;101983.53;5036827;28;20061;-64
2022/03/02 05:51:52;;;;;;;21.95;11.13;;;;;;;4.14;46.47;101983.31;5052892;28;20041;-64
2022/03/02 05:54:19;;;;;;;26.73;10.90;;;;;;;4.07;45.69;101985.41;5052860;28;20140;-64
2022/03/02 05:56:45;;;;;;;25.15;10.70;;;;;;;4.10;46.81;101976.53;5035408;28;20087;-64
2022/03/02 05:59:14;;;;;;;24.83;11.27;;;;;;;3.97;45.96;101978.97;5052521;28;20037;-64
2022/03/02 06:01:41;;;;;;;27.20;11.43;;;;;;;3.90;46.64;101982.84;5068459;28;20493;-64
2022/03/02 06:04:08;;;;;;;22.73;10.52;;;;;;;3.96;47.88;101987.75;5050964;28;20053;-64
2022/03/02 06:06:39;;;;;;;24.42;10.73;;;;;;;4.01;47.43;101986.56;5047007;28;20042;-64
2022/03/02 06:09:08;;;;;;;28.80;11.45;;;;;;;3.92;48.16;101991.47;5047680;28;20037;-64
2022/03/02 06:11:37;;;;;;;24.02;11.32;;;;;;;3.95;47.47;101992.16;5032575;28;20045;-64
2022/03/02 06:14:05;;;;;;;21.65;10.68;;;;;;;3.83;48.39;101990.16;5032422;28;20045;-63
2022/03/02 06:16:32;;;;;;;22.75;11.23;;;;;;;3.88;48.49;101993.41;5032683;28;20065;-64
2022/03/02 06:18:59;;;;;;;31.45;11.18;;;;;;;3.74;48.78;101994.13;5031224;28;20480;-64
2022/03/02 06:21:29;;;;;;;23.08;11.13;;;;;;;3.84;48.41;101997.97;5047513;28;20060;-64
2022/03/02 06:23:57;;;;;;;23.75;11.23;;;;;;;3.86;48.25;101987.41;5052399;28;20040;-64
2022/03/02 06:26:25;;;;;;;27.08;11.85;;;;;;;3.73;49.33;101989.81;5034866;28;20053;-64
2022/03/02 06:28:53;;;;;;;27.80;11.60;;;;;;;3.68;48.33;101986.56;5052330;28;20037;-64
2022/03/02 06:31:20;;;;;;;24.30;11.57;;;;;;;3.73;49.33;101991.56;5052893;28;20071;-64
2022/03/02 06:33:47;;;;;;;27.00;11.50;;;;;;;3.76;49.04;101994.88;5056062;28;20048;-64
2022/03/02 06:36:15;;;;;;;30.30;11.90;;;;;;;3.76;48.99;101981.75;5055025;28;20089;-64
2022/03/02 06:38:48;;;;;;;28.95;11.90;;;;;;;3.80;49.54;101988.56;5054913;28;20049;-64
2022/03/02 06:41:54;;;;;;;31.38;11.40;;;;;;;3.77;50.05;101986.09;5038323;28;20076;-64
2022/03/02 06:44:30;;;;;;;26.80;10.55;;;;;;;3.82;50.30;101988.47;5054730;28;20046;-64
2022/03/02 06:47:04;;;;;;;21.83;11.30;;;;;;;3.87;50.50;101991.69;5054399;28;20140;-64
2022/03/02 06:50:04;;;;;;;25.98;12.35;;;;;;;3.95;50.31;101986.91;5054347;28;20052;-64
2022/03/02 06:52:37;;;;;;;27.58;11.77;;;;;;;3.97;49.76;101992.94;5055221;28;20037;-64
2022/03/02 06:55:07;;;;;;;27.63;11.65;;;;;;;4.02;49.71;101990.03;5055445;28;20405;-65
2022/03/02 06:57:35;;;;;;;25.27;12.40;;;;;;;4.04;49.33;101993.47;5055654;28;20140;-64
2022/03/02 07:00:16;;;;;;;23.98;11.00;;;;;;;4.07;49.86;101988.03;5055536;28;20067;-64
2022/03/02 07:03:01;;;;;;;27.02;12.00;;;;;;;4.13;49.65;101989.47;5061887;28;20435;-64
2022/03/02 07:05:28;;;;;;;26.10;11.88;;;;;;;4.21;49.43;101995.19;5057931;28;20461;-64
2022/03/02 07:07:55;;;;;;;23.90;11.25;;;;;;;4.23;48.42;102001.19;5073663;28;20052;-64
2022/03/02 07:10:24;;;;;;;25.67;11.60;;;;;;;4.34;48.65;101990.13;5057615;28;20158;-64
2022/03/02 07:12:52;;;;;;;25.55;11.60;;;;;;;4.39;48.43;101990.72;5057766;28;20032;-64
2022/03/02 07:15:19;;;;;;;25.65;11.20;;;;;;;4.34;48.16;101996.22;5075414;28;20044;-64
2022/03/02 07:17:45;;;;;;;31.90;12.65;;;;;;;4.33;48.36;101999.78;5057814;28;20048;-64
2022/03/02 07:20:12;;;;;;;24.85;12.13;;;;;;;4.40;48.67;102002.91;5023200;28;20119;-64
2022/03/02 07:22:51;;;;;;;24.40;11.82;;;;;;;4.46;48.86;102009.59;5037471;28;20103;-64
2022/03/02 07:25:22;;;;;;;30.05;12.88;;;;;;;4.40;49.26;102010.78;5055309;28;20453;-64
2022/03/02 07:27:50;;;;;;;29.33;12.18;;;;;;;4.41;48.69;102010.72;5054076;28;20053;-64
2022/03/02 07:30:17;;;;;;;25.80;12.43;;;;;;;4.45;48.19;102014.03;5055217;28;20048;-64
2022/03/02 07:32:45;;;;;;;26.35;12.45;;;;;;;4.51;48.57;102012.84;5054355;28;20037;-64
2022/03/02 07:35:15;;;;;;;28.65;12.57;;;;;;;4.52;47.70;102012.75;5072952;28;20040;-64
2022/03/02 07:37:44;;;;;;;27.67;12.48;;;;;;;4.55;47.60;102007.34;5060531;28;20033;-64
2022/03/02 07:40:14;;;;;;;24.23;12.00;;;;;;;4.66;47.33;102005.88;5054192;28;20485;-65
2022/03/02 07:42:42;;;;;;;37.60;12.27;;;;;;;4.69;46.75;102001.31;5050179;28;20040;-64
2022/03/02 07:45:09;;;;;;;30.63;12.73;;;;;;;4.69;47.56;101992.59;5056402;28;20040;-64
2022/03/02 07:47:36;;;;;;;31.42;12.40;;;;;;;4.70;47.31;101991.66;5065160;28;20048;-65
2022/03/02 07:50:03;;;;;;;31.90;13.10;;;;;;;4.64;47.11;101991.97;5066998;28;20044;-64
2022/03/02 07:52:30;;;;;;;31.02;12.45;;;;;;;4.51;48.58;101991.81;5059725;28;20051;-64
2022/03/02 07:55:03;;;;;;;30.92;12.35;;;;;;;4.41;48.75;101992.31;5055852;28;20097;-65
2022/03/02 07:57:30;;;;;;;30.38;11.63;;;;;;;4.35;48.97;101997.91;5072303;28;20043;-64
2022/03/02 07:59:58;;;;;;;33.90;12.85;;;;;;;4.50;48.80;101996.22;5072687;28;20040;-64
2022/03/02 08:02:29;;;;;;;32.20;12.70;;;;;;;4.64;48.93;101997.25;5073215;28;20072;-64
2022/03/02 08:04:56;;;;;;;29.30;12.00;;;;;;;4.76;46.74;101984.25;5071802;28;20123;-64
2022/03/02 08:07:24;;;;;;;27.90;12.82;;;;;;;4.98;45.79;101988.31;5064483;28;20071;-64
2022/03/02 08:09:52;;;;;;;29.38;12.45;;;;;;;4.96;46.78;101984.94;5065202;28;20056;-65
2022/03/02 08:12:21;;;;;;;29.40;12.80;;;;;;;5.13;46.51;101991.84;5049860;28;20048;-64
2022/03/02 08:14:48;;;;;;;29.23;13.85;;;;;;;5.23;45.92;101982.50;5036572;28;20064;-64
2022/03/02 08:17:17;;;;;;;28.95;12.68;;;;;;;5.43;44.57;101985.75;5066587;28;20048;-64
2022/03/02 08:19:46;;;;;;;31.52;13.73;;;;;;;5.64;44.80;101981.00;5054556;28;20032;-64
2022/03/02 08:22:17;;;;;;;31.48;14.25;;;;;;;5.59;44.29;101973.38;5050806;28;20059;-65
2022/03/02 08:24:53;;;;;;;33.95;13.00;;;;;;;5.74;43.82;101987.41;5044425;28;20043;-65
2022/03/02 08:27:21;;;;;;;27.98;13.55;;;;;;;5.77;42.79;101985.44;5046937;28;20033;-65
2022/03/02 08:29:54;;;;;;;29.60;13.05;;;;;;;5.87;44.42;101972.56;5061269;28;20508;-64
2022/03/02 08:32:21;;;;;;;37.20;12.95;;;;;;;5.88;43.17;101978.69;5056391;28;20033;-64
2022/03/02 08:34:49;;;;;;;35.45;13.00;;;;;;;6.00;42.10;101977.13;5064458;28;20052;-64
2022/03/02 08:37:18;;;;;;;37.30;12.80;;;;;;;6.12;42.37;101971.94;5064547;28;20033;-64
2022/03/02 08:39:46;;;;;;;28.25;12.57;;;;;;;6.38;41.25;101971.25;5041291;28;20037;-64
2022/03/02 08:42:16;;;;;;;28.70;12.80;;;;;;;6.31;41.08;101966.38;5052569;28;20127;-64
2022/03/02 08:44:45;;;;;;;29.52;12.45;;;;;;;6.38;41.01;101963.34;5073555;28;20287;-64
2022/03/02 08:47:13;;;;;;;27.23;11.93;;;;;;;6.42;41.49;101963.06;5048303;28;20037;-66
2022/03/02 08:49:40;;;;;;;23.92;11.80;;;;;;;6.58;39.11;101964.72;5063978;28;20079;-65
2022/03/02 08:52:08;;;;;;;23.27;12.15;;;;;;;6.67;40.25;101958.84;5058139;28;20144;-65
2022/03/02 08:54:45;;;;;;;22.67;11.77;;;;;;;6.76;39.50;101963.53;5061902;28;20040;-65
2022/03/02 08:57:12;;;;;;;24.92;11.95;;;;;;;6.82;39.18;101960.50;5026578;28;20048;-64
2022/03/02 08:59:40;;;;;;;26.55;12.18;;;;;;;7.04;38.70;101961.72;5055534;28;20094;-64
2022/03/02 09:02:09;;;;;;;26.40;13.15;;;;;;;6.91;39.07;101954.63;5047675;28;20037;-65
2022/03/02 09:04:38;;;;;;;25.85;12.68;;;;;;;6.85;38.92;101947.09;5028387;28;20042;-65
2022/03/02 09:07:05;;;;;;;26.40;12.68;;;;;;;6.66;38.82;101947.47;5051830;28;20037;-65
2022/03/02 09:09:32;;;;;;;30.65;12.35;;;;;;;6.52;38.44;101945.69;5062887;28;20041;-65
2022/03/02 09:11:59;;;;;;;22.77;10.73;;;;;;;6.53;38.79;101946.53;5057021;28;20036;-65
2022/03/02 09:14:26;;;;;;;24.67;10.90;;;;;;;6.44;40.23;101948.00;5066389;28;20033;-65
2022/03/02 09:16:53;;;;;;;26.63;11.95;;;;;;;6.41;39.04;101949.97;5040752;28;20060;-65
2022/03/02 09:19:20;;;;;;;28.80;11.35;;;;;;;6.53;38.58;101950.03;5065393;28;20041;-65
2022/03/02 09:21:47;;;;;;;22.95;11.23;;;;;;;6.56;39.34;101943.72;5052216;28;20106;-65
2022/03/02 09:24:15;;;;;;;24.92;11.52;;;;;;;6.63;38.68;101952.94;5047812;28;20043;-65
2022/03/02 09:26:43;;;;;;;25.42;12.02;;;;;;;6.68;38.68;101950.84;5056376;28;20477;-65
2022/03/02 09:29:10;;;;;;;22.40;11.48;;;;;;;6.82;38.08;101943.81;5040728;28;20091;-65
2022/03/02 09:31:37;;;;;;;28.05;11.63;;;;;;;6.82;38.61;101942.03;5028757;28;20045;-65
2022/03/02 09:34:08;;;;;;;24.05;11.77;;;;;;;6.70;38.47;101937.56;5020123;28;20087;-67
2022/03/02 09:36:37;;;;;;;25.83;11.80;;;;;;;6.98;37.40;101941.03;5059880;28;20102;-65
2022/03/02 09:39:08;;;;;;;24.73;12.10;;;;;;;7.13;37.60;101940.03;5023279;28;20037;-65
2022/03/02 09:41:41;;;;;;;26.38;10.60;;;;;;;7.18;37.88;101929.16;5053917;28;20048;-65
2022/03/02 09:44:16;;;;;;;20.20;11.18;;;;;;;7.20;37.33;101930.72;5033485;28;20498;-65
2022/03/02 09:46:48;;;;;;;24.67;11.93;;;;;;;7.35;37.43;101938.56;5058244;28;20382;-65
2022/03/02 09:49:20;;;;;;;27.23;11.68;;;;;;;7.30;38.63;101936.25;5055374;28;20404;-65
2022/03/02 09:52:03;;;;;;;25.67;11.25;;;;;;;7.52;37.35;101933.00;5055784;28;20056;-65
2022/03/02 09:54:36;;;;;;;24.38;12.00;;;;;;;7.53;36.28;101928.53;5051944;28;20124;-65
2022/03/02 09:57:06;;;;;;;28.10;12.25;;;;;;;7.63;36.13;101925.16;5065797;28;20063;-65
2022/03/02 09:59:38;;;;;;;25.63;12.15;;;;;;;7.66;36.90;101921.50;5052113;28;20041;-66
2022/03/02 10:02:07;;;;;;;;;;;;;;;7.79;36.96;101934.69;5050892;28;20059;-65
2022/03/02 10:04:35;;;;;;;26.58;12.52;;;;;;;7.85;36.85;101927.16;5052975;28;20011;-65
2022/03/02 10:07:40;;;;;;;26.55;12.43;;;;;;;8.02;37.16;101930.41;5061574;28;20048;-65
2022/03/02 10:10:10;;;;;;;;;;;;;;;8.44;36.67;101923.91;5055590;28;20060;-65
2022/03/02 10:12:39;;;;;;;24.70;12.27;;;;;;;9.12;33.69;101926.00;5076652;28;19924;-65
2022/03/02 10:15:10;;;;;;;25.33;11.65;;;;;;;9.40;34.00;101930.91;5057156;28;20397;-65
2022/03/02 10:17:39;;;;;;;27.33;12.50;;;;;;;10.71;31.01;101938.31;5066804;28;20127;-66
2022/03/02 10:20:10;;;;;;;29.25;12.50;;;;;;;12.36;28.95;101930.47;5061201;28;20041;-66
2022/03/02 10:25:17;;;;;;;30.55;13.63;;;;;;;14.79;24.86;101930.84;5109695;27;19916;-66
2022/03/02 10:28:04;;;;;;;25.65;13.50;;;;;;;16.36;23.50;101930.78;5106167;28;20039;-66
2022/03/02 10:30:35;;;;;;;27.27;14.95;;;;;;;17.49;21.32;101929.34;5087338;28;20039;-66
2022/03/02 10:33:21;;;;;;;25.85;13.65;;;;;;;18.09;20.14;101933.38;5113198;28;20032;-66
2022/03/02 10:35:52;;;;;;;37.20;14.15;;;;;;;18.79;19.42;101932.44;5111561;28;20122;-66
2022/03/02 10:38:30;;;;;;;32.07;12.60;;;;;;;18.18;19.47;101930.47;5120813;27;20576;-66
2022/03/02 10:41:00;;;;;;;21.35;11.75;;;;;;;16.88;21.02;101917.19;5100998;28;20364;-67
2022/03/02 10:43:38;;;;;;;24.35;12.25;;;;;;;15.98;21.54;101922.28;5085935;28;20488;-67
2022/03/02 10:46:10;;;;;;;21.88;11.80;;;;;;;16.57;21.13;101916.09;5107407;28;20043;-66
2022/03/02 10:48:47;;;;;;;24.45;12.00;;;;;;;17.23;20.98;101912.47;5108721;27;20051;-65
2022/03/02 10:51:14;;;;;;;21.35;11.85;;;;;;;19.16;19.47;101914.72;5071562;28;20044;-66
2022/03/02 10:53:46;;;;;;;18.45;11.40;;;;;;;19.78;17.85;101920.84;5106422;28;20036;-66
2022/03/02 10:56:17;;;;;;;20.48;11.45;;;;;;;21.48;16.15;101914.88;5110037;28;20122;-66
2022/03/02 10:58:48;;;;;;;25.23;12.77;;;;;;;21.62;16.60;101908.53;5090967;28;20036;-66
2022/03/02 11:01:17;;;;;;;25.67;11.65;;;;;;;22.39;15.20;101917.41;5105710;28;20500;-64
2022/03/02 11:03:44;;;;;;;27.13;13.02;;;;;;;22.84;15.45;101913.31;5109261;28;20480;-64
2022/03/02 11:06:11;;;;;;;21.67;10.98;;;;;;;20.78;16.49;101906.66;5114292;28;20044;-65
2022/03/02 11:08:41;;;;;;;21.60;11.60;;;;;;;20.61;17.56;101902.53;5088766;28;20048;-64
2022/03/02 11:11:09;;;;;;;21.48;13.23;;;;;;;22.30;15.35;101898.84;5109758;28;20142;-64
2022/03/02 11:13:37;;;;;;;25.42;13.35;;;;;;;23.36;15.42;101895.41;5107555;28;20555;-65
2022/03/02 11:16:05;;;;;;;23.10;13.00;;;;;;;23.92;14.91;101891.28;5103891;28;20085;-65
2022/03/02 11:18:41;;;;;;;20.92;12.35;;;;;;;24.55;14.21;101890.53;5106806;28;20035;-64
2022/03/02 11:21:14;;;;;;;23.42;12.65;;;;;;;24.85;14.83;101882.59;5107537;28;20044;-65
2022/03/02 11:23:44;;;;;;;24.25;12.98;;;;;;;25.46;13.93;101882.84;5089731;28;20043;-65
2022/03/02 11:26:16;;;;;;;21.17;12.20;;;;;;;24.36;13.29;101884.19;5104825;28;20035;-66